sensor_id;sensor_type;location;lat;lon;timestamp;temperature;humidity
7030;DHT22;3556;53.500;10.176;2023-05-29T00:00:34;12.70;99.90
7030;DHT22;3556;53.500;10.176;2023-05-29T00:02:59;12.60;99.90
7030;DHT22;3556;53.500;10.176;2023-05-29T00:05:26;12.50;99.90
7030;DHT22;3556;53.500;10.176;2023-05-29T00:07:52;12.50;99.90
7030;DHT22;3556;53.500;10.176;2023-05-29T00:10:18;12.40;99.90
7030;DHT22;3556;53.500;10.176;2023-05-29T00:12:43;12.30;99.90
7030;DHT22;3556;53.500;10.176;2023-05-29T00:15:09;12.30;99.90
7030;DHT22;3556;53.500;10.176;2023-05-29T00:17:38;12.20;99.90
7030;DHT22;3556;53.500;10.176;2023-05-29T00:20:05;12.20;99.90
7030;DHT22;3556;53.500;10.176;2023-05-29T00:22:37;12.10;99.90
7030;DHT22;3556;53.500;10.176;2023-05-29T00:25:06;12.10;99.90
7030;DHT22;3556;53.500;10.176;2023-05-29T00:27:33;12.10;99.90
7030;DHT22;3556;53.500;10.176;2023-05-29T00:29:59;12.00;99.90
7030;DHT22;3556;53.500;10.176;2023-05-29T00:32:25;12.00;99.90
7030;DHT22;3556;53.500;10.176;2023-05-29T00:34:53;12.00;99.90
7030;DHT22;3556;53.500;10.176;2023-05-29T00:37:18;11.90;99.90
7030;DHT22;3556;53.500;10.176;2023-05-29T00:39:47;11.90;99.90
7030;DHT22;3556;53.500;10.176;2023-05-29T00:42:13;11.90;99.90
7030;DHT22;3556;53.500;10.176;2023-05-29T00:44:38;11.80;99.90
7030;DHT22;3556;53.500;10.176;2023-05-29T00:47:04;11.80;99.90
7030;DHT22;3556;53.500;10.176;2023-05-29T00:49:30;11.80;99.90
7030;DHT22;3556;53.500;10.176;2023-05-29T00:51:56;11.80;99.90
7030;DHT22;3556;53.500;10.176;2023-05-29T00:54:28;11.80;99.90
7030;DHT22;3556;53.500;10.176;2023-05-29T00:56:56;11.80;99.90
7030;DHT22;3556;53.500;10.176;2023-05-29T00:59:22;11.70;99.90
7030;DHT22;3556;53.500;10.176;2023-05-29T01:01:51;11.70;99.90
7030;DHT22;3556;53.500;10.176;2023-05-29T01:04:18;11.70;99.90
7030;DHT22;3556;53.500;10.176;2023-05-29T01:06:44;11.70;99.90
7030;DHT22;3556;53.500;10.176;2023-05-29T01:09:10;11.70;99.90
7030;DHT22;3556;53.500;10.176;2023-05-29T01:12:36;11.60;99.90
7030;DHT22;3556;53.500;10.176;2023-05-29T01:18:07;11.50;99.90
7030;DHT22;3556;53.500;10.176;2023-05-29T01:21:07;11.50;99.90
7030;DHT22;3556;53.500;10.176;2023-05-29T01:23:57;11.40;99.90
7030;DHT22;3556;53.500;10.176;2023-05-29T01:29:14;11.40;99.90
7030;DHT22;3556;53.500;10.176;2023-05-29T01:31:42;11.30;99.90
7030;DHT22;3556;53.500;10.176;2023-05-29T01:34:09;11.20;99.90
7030;DHT22;3556;53.500;10.176;2023-05-29T01:36:34;11.20;99.90
7030;DHT22;3556;53.500;10.176;2023-05-29T01:39:01;11.10;99.90
7030;DHT22;3556;53.500;10.176;2023-05-29T01:41:27;11.10;99.90
7030;DHT22;3556;53.500;10.176;2023-05-29T01:43:53;11.00;99.90
7030;DHT22;3556;53.500;10.176;2023-05-29T01:46:20;11.00;99.90
7030;DHT22;3556;53.500;10.176;2023-05-29T01:48:47;10.90;99.90
7030;DHT22;3556;53.500;10.176;2023-05-29T01:51:13;10.80;99.90
7030;DHT22;3556;53.500;10.176;2023-05-29T01:53:39;10.80;99.90
7030;DHT22;3556;53.500;10.176;2023-05-29T01:56:06;10.70;99.90
7030;DHT22;3556;53.500;10.176;2023-05-29T01:58:33;10.70;99.90
7030;DHT22;3556;53.500;10.176;2023-05-29T02:01:00;10.60;99.90
7030;DHT22;3556;53.500;10.176;2023-05-29T02:03:26;10.60;99.90
7030;DHT22;3556;53.500;10.176;2023-05-29T02:05:55;10.50;99.90
7030;DHT22;3556;53.500;10.176;2023-05-29T02:08:21;10.50;99.90
7030;DHT22;3556;53.500;10.176;2023-05-29T02:10:47;10.40;99.90
7030;DHT22;3556;53.500;10.176;2023-05-29T02:13:12;10.40;99.90
7030;DHT22;3556;53.500;10.176;2023-05-29T02:15:38;10.30;99.90
7030;DHT22;3556;53.500;10.176;2023-05-29T02:18:04;10.30;99.90
7030;DHT22;3556;53.500;10.176;2023-05-29T02:20:29;10.30;99.90
7030;DHT22;3556;53.500;10.176;2023-05-29T02:22:55;10.20;99.90
7030;DHT22;3556;53.500;10.176;2023-05-29T02:25:20;10.20;99.90
7030;DHT22;3556;53.500;10.176;2023-05-29T02:27:46;10.20;99.90
7030;DHT22;3556;53.500;10.176;2023-05-29T02:30:12;10.10;99.90
7030;DHT22;3556;53.500;10.176;2023-05-29T02:32:37;10.00;99.90
7030;DHT22;3556;53.500;10.176;2023-05-29T02:35:03;10.00;99.90
7030;DHT22;3556;53.500;10.176;2023-05-29T02:37:29;10.00;99.90
7030;DHT22;3556;53.500;10.176;2023-05-29T02:39:54;9.90;99.90
7030;DHT22;3556;53.500;10.176;2023-05-29T02:42:20;9.80;99.90
7030;DHT22;3556;53.500;10.176;2023-05-29T02:44:46;9.80;99.90
7030;DHT22;3556;53.500;10.176;2023-05-29T02:47:12;9.70;99.90
7030;DHT22;3556;53.500;10.176;2023-05-29T02:49:38;9.70;99.90
7030;DHT22;3556;53.500;10.176;2023-05-29T02:52:03;9.60;99.90
7030;DHT22;3556;53.500;10.176;2023-05-29T02:54:29;9.60;99.90
7030;DHT22;3556;53.500;10.176;2023-05-29T02:56:55;9.60;99.90
7030;DHT22;3556;53.500;10.176;2023-05-29T02:59:21;9.50;99.90
7030;DHT22;3556;53.500;10.176;2023-05-29T03:01:46;9.50;99.90
7030;DHT22;3556;53.500;10.176;2023-05-29T03:04:13;9.40;99.90
7030;DHT22;3556;53.500;10.176;2023-05-29T03:06:38;9.40;99.90
7030;DHT22;3556;53.500;10.176;2023-05-29T03:09:04;9.40;99.90
7030;DHT22;3556;53.500;10.176;2023-05-29T03:11:33;9.40;99.90
7030;DHT22;3556;53.500;10.176;2023-05-29T03:14:01;9.40;99.90
7030;DHT22;3556;53.500;10.176;2023-05-29T03:16:27;9.30;99.90
7030;DHT22;3556;53.500;10.176;2023-05-29T03:18:55;9.30;99.90
7030;DHT22;3556;53.500;10.176;2023-05-29T03:21:20;9.30;99.90
7030;DHT22;3556;53.500;10.176;2023-05-29T03:23:46;9.20;99.90
7030;DHT22;3556;53.500;10.176;2023-05-29T03:26:12;9.20;99.90
7030;DHT22;3556;53.500;10.176;2023-05-29T03:28:39;9.20;99.90
7030;DHT22;3556;53.500;10.176;2023-05-29T03:31:05;9.10;99.90
7030;DHT22;3556;53.500;10.176;2023-05-29T03:33:30;9.10;99.90
7030;DHT22;3556;53.500;10.176;2023-05-29T03:35:56;9.10;99.90
7030;DHT22;3556;53.500;10.176;2023-05-29T03:38:22;9.10;99.90
7030;DHT22;3556;53.500;10.176;2023-05-29T03:40:48;9.00;99.90
7030;DHT22;3556;53.500;10.176;2023-05-29T03:43:13;9.00;99.90
7030;DHT22;3556;53.500;10.176;2023-05-29T03:45:39;9.00;99.90
7030;DHT22;3556;53.500;10.176;2023-05-29T03:48:05;9.00;99.90
7030;DHT22;3556;53.500;10.176;2023-05-29T03:50:31;9.00;99.90
7030;DHT22;3556;53.500;10.176;2023-05-29T03:52:56;8.90;99.90
7030;DHT22;3556;53.500;10.176;2023-05-29T03:55:22;8.90;99.90
7030;DHT22;3556;53.500;10.176;2023-05-29T03:57:48;8.90;99.90
7030;DHT22;3556;53.500;10.176;2023-05-29T04:00:13;8.90;99.90
7030;DHT22;3556;53.500;10.176;2023-05-29T04:02:40;8.90;99.90
7030;DHT22;3556;53.500;10.176;2023-05-29T04:05:07;8.90;99.90
7030;DHT22;3556;53.500;10.176;2023-05-29T04:07:35;8.90;99.90
7030;DHT22;3556;53.500;10.176;2023-05-29T04:10:05;8.90;99.90
7030;DHT22;3556;53.500;10.176;2023-05-29T04:12:31;8.90;99.90
7030;DHT22;3556;53.500;10.176;2023-05-29T04:14:57;8.90;99.90
7030;DHT22;3556;53.500;10.176;2023-05-29T04:17:22;8.90;99.90
7030;DHT22;3556;53.500;10.176;2023-05-29T04:19:48;8.90;99.90
7030;DHT22;3556;53.500;10.176;2023-05-29T04:22:14;9.00;99.90
7030;DHT22;3556;53.500;10.176;2023-05-29T04:24:39;9.00;99.90
7030;DHT22;3556;53.500;10.176;2023-05-29T04:27:10;9.00;99.90
7030;DHT22;3556;53.500;10.176;2023-05-29T04:29:41;9.00;99.90
7030;DHT22;3556;53.500;10.176;2023-05-29T04:32:08;9.00;99.90
7030;DHT22;3556;53.500;10.176;2023-05-29T04:34:35;9.00;99.90
7030;DHT22;3556;53.500;10.176;2023-05-29T04:37:02;9.10;99.90
7030;DHT22;3556;53.500;10.176;2023-05-29T04:39:28;9.10;99.90
7030;DHT22;3556;53.500;10.176;2023-05-29T04:41:54;9.10;99.90
7030;DHT22;3556;53.500;10.176;2023-05-29T04:44:21;9.20;99.90
7030;DHT22;3556;53.500;10.176;2023-05-29T04:46:47;9.20;99.90
7030;DHT22;3556;53.500;10.176;2023-05-29T04:49:13;9.30;99.90
7030;DHT22;3556;53.500;10.176;2023-05-29T04:51:39;9.30;99.90
7030;DHT22;3556;53.500;10.176;2023-05-29T04:54:09;9.40;99.90
7030;DHT22;3556;53.500;10.176;2023-05-29T04:56:35;9.40;99.90
7030;DHT22;3556;53.500;10.176;2023-05-29T04:59:00;9.50;99.90
7030;DHT22;3556;53.500;10.176;2023-05-29T05:01:26;9.50;99.90
7030;DHT22;3556;53.500;10.176;2023-05-29T05:03:52;9.60;99.90
7030;DHT22;3556;53.500;10.176;2023-05-29T05:06:22;9.60;99.90
7030;DHT22;3556;53.500;10.176;2023-05-29T05:08:47;9.60;99.90
7030;DHT22;3556;53.500;10.176;2023-05-29T05:11:14;9.70;99.90
7030;DHT22;3556;53.500;10.176;2023-05-29T05:13:40;9.80;99.90
7030;DHT22;3556;53.500;10.176;2023-05-29T05:16:06;9.90;99.90
7030;DHT22;3556;53.500;10.176;2023-05-29T05:18:31;10.00;99.90
7030;DHT22;3556;53.500;10.176;2023-05-29T05:20:57;10.10;99.90
7030;DHT22;3556;53.500;10.176;2023-05-29T05:23:23;10.20;99.90
7030;DHT22;3556;53.500;10.176;2023-05-29T05:25:48;10.30;99.90
7030;DHT22;3556;53.500;10.176;2023-05-29T05:28:14;10.30;99.90
7030;DHT22;3556;53.500;10.176;2023-05-29T05:30:40;10.40;99.90
7030;DHT22;3556;53.500;10.176;2023-05-29T05:33:05;10.40;99.90
7030;DHT22;3556;53.500;10.176;2023-05-29T05:35:31;10.50;99.90
7030;DHT22;3556;53.500;10.176;2023-05-29T05:37:56;10.50;99.90
7030;DHT22;3556;53.500;10.176;2023-05-29T05:40:26;10.60;99.90
7030;DHT22;3556;53.500;10.176;2023-05-29T05:42:51;10.70;99.90
7030;DHT22;3556;53.500;10.176;2023-05-29T05:45:17;10.80;99.90
7030;DHT22;3556;53.500;10.176;2023-05-29T05:47:43;10.90;99.90
7030;DHT22;3556;53.500;10.176;2023-05-29T05:50:09;10.90;99.90
7030;DHT22;3556;53.500;10.176;2023-05-29T05:52:34;11.00;99.90
7030;DHT22;3556;53.500;10.176;2023-05-29T05:55:00;11.10;99.90
7030;DHT22;3556;53.500;10.176;2023-05-29T05:57:26;11.10;99.90
7030;DHT22;3556;53.500;10.176;2023-05-29T05:59:52;11.20;99.90
7030;DHT22;3556;53.500;10.176;2023-05-29T06:02:18;11.30;99.90
7030;DHT22;3556;53.500;10.176;2023-05-29T06:04:44;11.40;99.90
7030;DHT22;3556;53.500;10.176;2023-05-29T06:07:09;11.50;99.90
7030;DHT22;3556;53.500;10.176;2023-05-29T06:09:36;11.50;99.90
7030;DHT22;3556;53.500;10.176;2023-05-29T06:12:02;11.60;99.90
7030;DHT22;3556;53.500;10.176;2023-05-29T06:14:27;11.70;99.90
7030;DHT22;3556;53.500;10.176;2023-05-29T06:16:53;11.80;99.90
7030;DHT22;3556;53.500;10.176;2023-05-29T06:19:19;11.80;99.90
7030;DHT22;3556;53.500;10.176;2023-05-29T06:21:45;11.90;99.90
7030;DHT22;3556;53.500;10.176;2023-05-29T06:24:12;12.00;99.90
7030;DHT22;3556;53.500;10.176;2023-05-29T06:26:38;12.10;99.90
7030;DHT22;3556;53.500;10.176;2023-05-29T06:29:04;12.10;99.90
7030;DHT22;3556;53.500;10.176;2023-05-29T06:31:31;12.10;99.90
7030;DHT22;3556;53.500;10.176;2023-05-29T06:33:58;12.00;99.90
7030;DHT22;3556;53.500;10.176;2023-05-29T06:36:24;12.10;99.90
7030;DHT22;3556;53.500;10.176;2023-05-29T06:38:50;12.20;99.90
7030;DHT22;3556;53.500;10.176;2023-05-29T06:41:16;12.40;99.90
7030;DHT22;3556;53.500;10.176;2023-05-29T06:43:42;12.50;99.90
7030;DHT22;3556;53.500;10.176;2023-05-29T06:46:07;12.70;99.90
7030;DHT22;3556;53.500;10.176;2023-05-29T06:48:33;12.80;99.90
7030;DHT22;3556;53.500;10.176;2023-05-29T06:51:00;12.80;99.90
7030;DHT22;3556;53.500;10.176;2023-05-29T06:53:26;12.80;99.90
7030;DHT22;3556;53.500;10.176;2023-05-29T06:55:52;12.90;99.90
7030;DHT22;3556;53.500;10.176;2023-05-29T06:58:18;12.90;99.90
7030;DHT22;3556;53.500;10.176;2023-05-29T07:00:44;13.00;99.90
7030;DHT22;3556;53.500;10.176;2023-05-29T07:03:10;13.10;99.90
7030;DHT22;3556;53.500;10.176;2023-05-29T07:05:36;13.10;99.90
7030;DHT22;3556;53.500;10.176;2023-05-29T07:08:01;13.10;99.90
7030;DHT22;3556;53.500;10.176;2023-05-29T07:10:27;13.10;99.90
7030;DHT22;3556;53.500;10.176;2023-05-29T07:12:52;13.10;99.90
7030;DHT22;3556;53.500;10.176;2023-05-29T07:15:18;13.00;99.90
7030;DHT22;3556;53.500;10.176;2023-05-29T07:17:44;13.00;99.90
7030;DHT22;3556;53.500;10.176;2023-05-29T07:20:10;13.10;99.90
7030;DHT22;3556;53.500;10.176;2023-05-29T07:22:36;13.30;99.90
7030;DHT22;3556;53.500;10.176;2023-05-29T07:25:02;13.40;99.90
7030;DHT22;3556;53.500;10.176;2023-05-29T07:27:29;13.50;99.90
7030;DHT22;3556;53.500;10.176;2023-05-29T07:29:54;13.70;99.90
7030;DHT22;3556;53.500;10.176;2023-05-29T07:32:20;13.70;99.90
7030;DHT22;3556;53.500;10.176;2023-05-29T07:34:47;13.70;99.90
7030;DHT22;3556;53.500;10.176;2023-05-29T07:37:15;13.80;99.90
7030;DHT22;3556;53.500;10.176;2023-05-29T07:39:40;13.90;99.90
7030;DHT22;3556;53.500;10.176;2023-05-29T07:42:07;13.90;99.50
7030;DHT22;3556;53.500;10.176;2023-05-29T07:44:33;13.80;99.20
7030;DHT22;3556;53.500;10.176;2023-05-29T07:46:59;13.90;99.90
7030;DHT22;3556;53.500;10.176;2023-05-29T07:49:24;13.90;99.50
7030;DHT22;3556;53.500;10.176;2023-05-29T07:51:50;13.90;99.60
7030;DHT22;3556;53.500;10.176;2023-05-29T07:54:16;14.00;99.90
7030;DHT22;3556;53.500;10.176;2023-05-29T07:56:43;14.10;99.90
7030;DHT22;3556;53.500;10.176;2023-05-29T07:59:10;14.30;98.90
7030;DHT22;3556;53.500;10.176;2023-05-29T08:01:36;14.30;98.30
7030;DHT22;3556;53.500;10.176;2023-05-29T08:04:02;14.20;97.90
7030;DHT22;3556;53.500;10.176;2023-05-29T08:06:28;14.20;98.40
7030;DHT22;3556;53.500;10.176;2023-05-29T08:08:53;14.30;98.70
7030;DHT22;3556;53.500;10.176;2023-05-29T08:11:19;14.40;98.90
7030;DHT22;3556;53.500;10.176;2023-05-29T08:13:45;14.40;97.60
7030;DHT22;3556;53.500;10.176;2023-05-29T08:16:11;14.40;98.10
7030;DHT22;3556;53.500;10.176;2023-05-29T08:18:39;14.50;98.40
7030;DHT22;3556;53.500;10.176;2023-05-29T08:21:05;14.60;98.90
7030;DHT22;3556;53.500;10.176;2023-05-29T08:23:32;14.80;98.20
7030;DHT22;3556;53.500;10.176;2023-05-29T08:25:57;14.90;98.30
7030;DHT22;3556;53.500;10.176;2023-05-29T08:28:23;15.00;98.60
7030;DHT22;3556;53.500;10.176;2023-05-29T08:30:49;15.20;98.60
7030;DHT22;3556;53.500;10.176;2023-05-29T08:33:15;15.30;98.30
7030;DHT22;3556;53.500;10.176;2023-05-29T08:35:40;15.50;98.70
7030;DHT22;3556;53.500;10.176;2023-05-29T08:38:06;15.50;96.70
7030;DHT22;3556;53.500;10.176;2023-05-29T08:40:32;15.60;96.50
7030;DHT22;3556;53.500;10.176;2023-05-29T08:43:04;15.70;96.10
7030;DHT22;3556;53.500;10.176;2023-05-29T08:45:34;15.70;94.50
7030;DHT22;3556;53.500;10.176;2023-05-29T08:48:01;15.60;93.90
7030;DHT22;3556;53.500;10.176;2023-05-29T08:50:27;15.60;94.40
7030;DHT22;3556;53.500;10.176;2023-05-29T08:52:52;15.50;94.80
7030;DHT22;3556;53.500;10.176;2023-05-29T08:55:18;15.60;95.80
7030;DHT22;3556;53.500;10.176;2023-05-29T08:57:44;15.80;96.10
7030;DHT22;3556;53.500;10.176;2023-05-29T09:00:11;16.00;93.90
7030;DHT22;3556;53.500;10.176;2023-05-29T09:02:41;16.10;94.90
7030;DHT22;3556;53.500;10.176;2023-05-29T09:05:09;16.20;92.70
7030;DHT22;3556;53.500;10.176;2023-05-29T09:07:36;16.20;92.10
7030;DHT22;3556;53.500;10.176;2023-05-29T09:10:08;16.10;91.80
7030;DHT22;3556;53.500;10.176;2023-05-29T09:12:34;16.10;93.00
7030;DHT22;3556;53.500;10.176;2023-05-29T09:15:00;16.20;91.90
7030;DHT22;3556;53.500;10.176;2023-05-29T09:17:31;16.20;91.40
7030;DHT22;3556;53.500;10.176;2023-05-29T09:19:58;16.10;91.70
7030;DHT22;3556;53.500;10.176;2023-05-29T09:22:23;16.10;92.10
7030;DHT22;3556;53.500;10.176;2023-05-29T09:24:49;16.30;93.20
7030;DHT22;3556;53.500;10.176;2023-05-29T09:27:17;16.40;92.00
7030;DHT22;3556;53.500;10.176;2023-05-29T09:29:45;16.60;92.50
7030;DHT22;3556;53.500;10.176;2023-05-29T09:32:20;16.70;91.80
7030;DHT22;3556;53.500;10.176;2023-05-29T09:34:46;16.90;92.80
7030;DHT22;3556;53.500;10.176;2023-05-29T09:37:12;17.10;92.50
7030;DHT22;3556;53.500;10.176;2023-05-29T09:42:07;17.10;92.40
7030;DHT22;3556;53.500;10.176;2023-05-29T09:44:34;17.10;91.40
7030;DHT22;3556;53.500;10.176;2023-05-29T09:47:00;17.10;92.10
7030;DHT22;3556;53.500;10.176;2023-05-29T09:49:26;17.30;91.40
7030;DHT22;3556;53.500;10.176;2023-05-29T09:51:56;17.30;90.90
7030;DHT22;3556;53.500;10.176;2023-05-29T09:54:27;17.40;91.20
7030;DHT22;3556;53.500;10.176;2023-05-29T09:56:56;17.50;90.40
7030;DHT22;3556;53.500;10.176;2023-05-29T09:59:24;17.40;91.10
7030;DHT22;3556;53.500;10.176;2023-05-29T10:02:00;17.60;92.10
7030;DHT22;3556;53.500;10.176;2023-05-29T10:04:26;17.80;92.30
7030;DHT22;3556;53.500;10.176;2023-05-29T10:06:55;18.10;90.60
7030;DHT22;3556;53.500;10.176;2023-05-29T10:09:22;18.20;91.50
7030;DHT22;3556;53.500;10.176;2023-05-29T10:11:49;18.40;91.70
7030;DHT22;3556;53.500;10.176;2023-05-29T10:14:18;18.70;91.10
7030;DHT22;3556;53.500;10.176;2023-05-29T10:16:46;18.90;91.10
7030;DHT22;3556;53.500;10.176;2023-05-29T10:19:13;19.20;89.80
7030;DHT22;3556;53.500;10.176;2023-05-29T10:21:41;19.30;89.60
7030;DHT22;3556;53.500;10.176;2023-05-29T10:24:11;19.40;85.90
7030;DHT22;3556;53.500;10.176;2023-05-29T10:26:39;19.60;89.00
7030;DHT22;3556;53.500;10.176;2023-05-29T10:29:12;19.70;86.60
7030;DHT22;3556;53.500;10.176;2023-05-29T10:38:14;20.20;86.60
7030;DHT22;3556;53.500;10.176;2023-05-29T10:40:42;20.30;84.10
7030;DHT22;3556;53.500;10.176;2023-05-29T10:43:08;20.50;80.70
7030;DHT22;3556;53.500;10.176;2023-05-29T10:50:43;21.00;79.50
7030;DHT22;3556;53.500;10.176;2023-05-29T10:53:09;21.20;78.30
7030;DHT22;3556;53.500;10.176;2023-05-29T10:55:39;21.20;76.30
7030;DHT22;3556;53.500;10.176;2023-05-29T11:00:31;21.50;75.20
7030;DHT22;3556;53.500;10.176;2023-05-29T11:03:02;21.60;73.90
7030;DHT22;3556;53.500;10.176;2023-05-29T11:05:28;21.50;75.10
7030;DHT22;3556;53.500;10.176;2023-05-29T11:07:59;21.60;72.20
7030;DHT22;3556;53.500;10.176;2023-05-29T11:10:44;21.50;72.90
7030;DHT22;3556;53.500;10.176;2023-05-29T11:13:11;21.60;73.60
7030;DHT22;3556;53.500;10.176;2023-05-29T11:15:48;21.80;74.20
7030;DHT22;3556;53.500;10.176;2023-05-29T11:18:13;22.10;73.00
7030;DHT22;3556;53.500;10.176;2023-05-29T11:20:49;22.30;71.50
7030;DHT22;3556;53.500;10.176;2023-05-29T11:23:18;22.50;72.00
7030;DHT22;3556;53.500;10.176;2023-05-29T11:25:46;22.70;72.20
7030;DHT22;3556;53.500;10.176;2023-05-29T11:28:13;22.90;70.30
7030;DHT22;3556;53.500;10.176;2023-05-29T11:30:46;23.20;64.10
7030;DHT22;3556;53.500;10.176;2023-05-29T11:33:23;23.30;64.40
7030;DHT22;3556;53.500;10.176;2023-05-29T11:36:00;23.30;65.90
7030;DHT22;3556;53.500;10.176;2023-05-29T11:38:27;23.40;66.00
7030;DHT22;3556;53.500;10.176;2023-05-29T11:40:54;23.60;64.30
7030;DHT22;3556;53.500;10.176;2023-05-29T11:43:21;23.80;63.60
7030;DHT22;3556;53.500;10.176;2023-05-29T11:45:46;23.80;63.40
7030;DHT22;3556;53.500;10.176;2023-05-29T11:48:12;24.00;61.30
7030;DHT22;3556;53.500;10.176;2023-05-29T11:50:38;24.10;63.00
7030;DHT22;3556;53.500;10.176;2023-05-29T11:53:06;24.10;57.90
7030;DHT22;3556;53.500;10.176;2023-05-29T11:55:33;24.20;60.00
7030;DHT22;3556;53.500;10.176;2023-05-29T11:58:01;24.40;57.70
7030;DHT22;3556;53.500;10.176;2023-05-29T12:00:32;24.50;58.50
7030;DHT22;3556;53.500;10.176;2023-05-29T12:02:59;24.70;57.20
7030;DHT22;3556;53.500;10.176;2023-05-29T12:05:33;24.90;58.10
7030;DHT22;3556;53.500;10.176;2023-05-29T12:08:09;25.10;56.50
7030;DHT22;3556;53.500;10.176;2023-05-29T12:10:34;25.20;52.20
7030;DHT22;3556;53.500;10.176;2023-05-29T12:13:00;25.00;51.00
7030;DHT22;3556;53.500;10.176;2023-05-29T12:15:26;24.70;52.70
7030;DHT22;3556;53.500;10.176;2023-05-29T12:17:53;24.70;53.80
7030;DHT22;3556;53.500;10.176;2023-05-29T12:20:22;24.90;53.40
7030;DHT22;3556;53.500;10.176;2023-05-29T12:22:47;25.10;53.40
7030;DHT22;3556;53.500;10.176;2023-05-29T12:25:19;25.40;54.40
7030;DHT22;3556;53.500;10.176;2023-05-29T12:27:46;25.60;46.60
7030;DHT22;3556;53.500;10.176;2023-05-29T12:30:20;25.50;47.60
7030;DHT22;3556;53.500;10.176;2023-05-29T12:32:50;25.40;48.40
7030;DHT22;3556;53.500;10.176;2023-05-29T12:35:20;25.30;51.10
7030;DHT22;3556;53.500;10.176;2023-05-29T12:40:24;25.60;50.80
7030;DHT22;3556;53.500;10.176;2023-05-29T12:43:16;25.80;50.10
7030;DHT22;3556;53.500;10.176;2023-05-29T12:45:42;26.10;49.20
7030;DHT22;3556;53.500;10.176;2023-05-29T12:48:08;26.30;49.00
7030;DHT22;3556;53.500;10.176;2023-05-29T12:50:39;26.40;50.00
7030;DHT22;3556;53.500;10.176;2023-05-29T12:53:14;26.30;47.20
7030;DHT22;3556;53.500;10.176;2023-05-29T12:55:42;26.30;47.00
7030;DHT22;3556;53.500;10.176;2023-05-29T12:58:09;26.40;47.40
7030;DHT22;3556;53.500;10.176;2023-05-29T13:00:37;26.50;44.80
7030;DHT22;3556;53.500;10.176;2023-05-29T13:03:04;26.60;46.70
7030;DHT22;3556;53.500;10.176;2023-05-29T13:05:30;26.70;47.80
7030;DHT22;3556;53.500;10.176;2023-05-29T13:07:55;26.70;45.70
7030;DHT22;3556;53.500;10.176;2023-05-29T13:10:22;26.60;45.30
7030;DHT22;3556;53.500;10.176;2023-05-29T13:12:49;26.50;44.70
7030;DHT22;3556;53.500;10.176;2023-05-29T13:15:23;26.50;46.20
7030;DHT22;3556;53.500;10.176;2023-05-29T13:17:49;26.60;50.50
7030;DHT22;3556;53.500;10.176;2023-05-29T13:20:15;26.80;47.20
7030;DHT22;3556;53.500;10.176;2023-05-29T13:22:42;27.00;47.90
7030;DHT22;3556;53.500;10.176;2023-05-29T13:25:10;27.20;46.10
7030;DHT22;3556;53.500;10.176;2023-05-29T13:27:38;27.40;46.70
7030;DHT22;3556;53.500;10.176;2023-05-29T13:30:05;27.40;46.20
7030;DHT22;3556;53.500;10.176;2023-05-29T13:32:31;27.40;47.00
7030;DHT22;3556;53.500;10.176;2023-05-29T13:34:57;27.50;44.90
7030;DHT22;3556;53.500;10.176;2023-05-29T13:37:23;27.50;42.60
7030;DHT22;3556;53.500;10.176;2023-05-29T13:39:48;27.40;42.00
7030;DHT22;3556;53.500;10.176;2023-05-29T13:42:15;27.30;43.40
7030;DHT22;3556;53.500;10.176;2023-05-29T13:44:41;27.40;44.40
7030;DHT22;3556;53.500;10.176;2023-05-29T13:47:06;27.50;45.40
7030;DHT22;3556;53.500;10.176;2023-05-29T13:49:34;27.70;44.50
7030;DHT22;3556;53.500;10.176;2023-05-29T13:52:00;27.70;44.70
7030;DHT22;3556;53.500;10.176;2023-05-29T13:54:25;27.70;45.90
7030;DHT22;3556;53.500;10.176;2023-05-29T13:56:52;27.70;44.20
7030;DHT22;3556;53.500;10.176;2023-05-29T13:59:18;27.50;41.50
7030;DHT22;3556;53.500;10.176;2023-05-29T14:01:44;27.10;42.30
7030;DHT22;3556;53.500;10.176;2023-05-29T14:04:10;26.80;47.10
7030;DHT22;3556;53.500;10.176;2023-05-29T14:06:36;26.70;44.60
7030;DHT22;3556;53.500;10.176;2023-05-29T14:09:02;26.70;48.10
7030;DHT22;3556;53.500;10.176;2023-05-29T14:11:28;26.80;42.70
7030;DHT22;3556;53.500;10.176;2023-05-29T14:13:53;26.40;41.90
7030;DHT22;3556;53.500;10.176;2023-05-29T14:16:19;26.00;45.10
7030;DHT22;3556;53.500;10.176;2023-05-29T14:18:45;25.90;43.90
7030;DHT22;3556;53.500;10.176;2023-05-29T14:21:10;25.50;44.50
7030;DHT22;3556;53.500;10.176;2023-05-29T14:23:37;25.40;46.40
7030;DHT22;3556;53.500;10.176;2023-05-29T14:26:03;25.60;47.80
7030;DHT22;3556;53.500;10.176;2023-05-29T14:28:29;25.80;46.90
7030;DHT22;3556;53.500;10.176;2023-05-29T14:30:55;26.10;47.30
7030;DHT22;3556;53.500;10.176;2023-05-29T14:33:20;26.10;46.30
7030;DHT22;3556;53.500;10.176;2023-05-29T14:35:46;26.10;45.40
7030;DHT22;3556;53.500;10.176;2023-05-29T14:38:11;26.10;44.50
7030;DHT22;3556;53.500;10.176;2023-05-29T14:40:37;26.10;45.60
7030;DHT22;3556;53.500;10.176;2023-05-29T14:43:04;26.20;45.10
7030;DHT22;3556;53.500;10.176;2023-05-29T14:45:30;26.20;45.90
7030;DHT22;3556;53.500;10.176;2023-05-29T14:47:55;26.30;46.50
7030;DHT22;3556;53.500;10.176;2023-05-29T14:50:21;26.40;46.40
7030;DHT22;3556;53.500;10.176;2023-05-29T14:52:50;26.50;46.20
7030;DHT22;3556;53.500;10.176;2023-05-29T14:55:16;26.20;43.70
7030;DHT22;3556;53.500;10.176;2023-05-29T14:57:41;25.90;48.20
7030;DHT22;3556;53.500;10.176;2023-05-29T15:00:07;25.70;46.60
7030;DHT22;3556;53.500;10.176;2023-05-29T15:02:34;25.60;45.90
7030;DHT22;3556;53.500;10.176;2023-05-29T15:04:59;25.40;46.40
7030;DHT22;3556;53.500;10.176;2023-05-29T15:07:25;25.40;46.80
7030;DHT22;3556;53.500;10.176;2023-05-29T15:09:51;25.50;47.40
7030;DHT22;3556;53.500;10.176;2023-05-29T15:12:17;25.60;47.50
7030;DHT22;3556;53.500;10.176;2023-05-29T15:14:42;25.60;47.10
7030;DHT22;3556;53.500;10.176;2023-05-29T15:17:08;25.70;48.90
7030;DHT22;3556;53.500;10.176;2023-05-29T15:19:34;25.60;45.90
7030;DHT22;3556;53.500;10.176;2023-05-29T15:22:00;25.50;48.50
7030;DHT22;3556;53.500;10.176;2023-05-29T15:24:25;25.40;46.10
7030;DHT22;3556;53.500;10.176;2023-05-29T15:26:51;25.30;46.80
7030;DHT22;3556;53.500;10.176;2023-05-29T15:29:16;25.30;46.20
7030;DHT22;3556;53.500;10.176;2023-05-29T15:31:42;25.30;46.90
7030;DHT22;3556;53.500;10.176;2023-05-29T15:34:08;25.20;45.00
7030;DHT22;3556;53.500;10.176;2023-05-29T15:36:34;24.90;44.60
7030;DHT22;3556;53.500;10.176;2023-05-29T15:39:04;24.70;46.00
7030;DHT22;3556;53.500;10.176;2023-05-29T15:41:30;24.50;47.90
7030;DHT22;3556;53.500;10.176;2023-05-29T15:43:56;24.30;49.20
7030;DHT22;3556;53.500;10.176;2023-05-29T15:46:23;24.10;46.70
7030;DHT22;3556;53.500;10.176;2023-05-29T15:48:49;24.00;49.00
7030;DHT22;3556;53.500;10.176;2023-05-29T15:51:14;23.90;48.00
7030;DHT22;3556;53.500;10.176;2023-05-29T15:53:40;23.80;46.40
7030;DHT22;3556;53.500;10.176;2023-05-29T15:56:06;23.80;47.90
7030;DHT22;3556;53.500;10.176;2023-05-29T15:58:31;23.80;49.70
7030;DHT22;3556;53.500;10.176;2023-05-29T16:00:57;23.60;50.60
7030;DHT22;3556;53.500;10.176;2023-05-29T16:03:23;23.50;48.70
7030;DHT22;3556;53.500;10.176;2023-05-29T16:05:48;23.40;50.10
7030;DHT22;3556;53.500;10.176;2023-05-29T16:08:14;23.30;51.10
7030;DHT22;3556;53.500;10.176;2023-05-29T16:10:40;23.10;52.40
7030;DHT22;3556;53.500;10.176;2023-05-29T16:13:06;22.90;53.20